Independence — WDD6659 — position and weather

sailwx.info

Track history (hours):
 
Tides and Currents Weather Stations Pressure Air Temp Water Temp Dewpoint Dewpoint Depression Visibility Wind Speed Wind Dir Waves Ship Positions

Independence

Owner: Sortwell, Inc. DBA AmNav Maritime Services, Oakland, CA. More information available from US FCC via Universal Licensing System and Coast Guard Vessel Documentation Center.

Last reported at 2014-Dec-17 23:33 UTC. Time now 2014-Dec-18 16:25 UTC.
Position N 33°45' W 118°17'.

Length 24 m; draft 4.9 m.

Type: Tug. MMSI: 367175860.

Date/timePositionNaut miles runAvg speedWind from/ knotsBaromVisibWave heightAir tempDewpointWater temp
2014-Dec-17 23:33N 33°45' W 118°17'1 0.1
2014-Dec-17 15:06N 33°45' W 118°16'2 3.1
2014-Dec-17 14:33N 33°46' W 118°14'1 1.0
2014-Dec-17 13:33N 33°46' W 118°13'2 1.9
2014-Dec-17 12:26N 33°44' W 118°13'2 0.1
2014-Dec-16 14:08N 33°44' W 118°15'2 1.5
2014-Dec-16 12:33N 33°46' W 118°13'0 0.4
2014-Dec-16 11:33N 33°46' W 118°14'2 0.1
2014-Dec-15 13:07N 33°45' W 118°13'1 1.1
2014-Dec-15 12:33N 33°45' W 118°13'2 0.6
2014-Dec-15 09:26N 33°44' W 118°13'1 0.0
2014-Dec-13 12:09N 33°45' W 118°13'1 1.1
2014-Dec-13 11:33N 33°45' W 118°13'0 0.0
2014-Dec-13 10:33N 33°45' W 118°13'0 0.1
2014-Dec-13 09:33N 33°45' W 118°13'2 0.8
2014-Dec-13 07:17N 33°44' W 118°12'1 0.1
2014-Dec-12 21:33N 33°45' W 118°13'1 0.7
2014-Dec-12 20:32N 33°44' W 118°12'0 0.1
2014-Dec-12 16:10N 33°44' W 118°12'0 0.5
2014-Dec-12 15:32N 33°45' W 118°12'2 0.8
2014-Dec-12 13:24N 33°44' W 118°11'5 1.0
2014-Dec-12 08:33N 33°44' W 118°17'3 2.6
2014-Dec-12 07:33N 33°46' W 118°14'2 0.3
2014-Dec-12 00:23N 33°44' W 118°12'1 0.6
2014-Dec-11 23:33N 33°45' W 118°12'0 0.3
2014-Dec-11 22:33N 33°45' W 118°13'1 0.1
2014-Dec-11 14:33N 33°46' W 118°13'0 0.4
2014-Dec-11 13:33N 33°46' W 118°14'4 2.4
2014-Dec-11 12:04N 33°44' W 118°11'1 1.9
2014-Dec-11 11:24N 33°44' W 118°12'3 0.5
2014-Dec-11 04:16N 33°44' W 118°17'1 0.9
2014-Dec-11 03:32N 33°44' W 118°16'1 0.5
2014-Dec-11 02:23N 33°44' W 118°15'1 1.5
2014-Dec-11 01:33N 33°44' W 118°17'0 0.0
2014-Dec-11 00:34N 33°44' W 118°17'2 1.9
2014-Dec-10 23:33N 33°46' W 118°16'3 2.8
2014-Dec-10 22:33N 33°43' W 118°16'1 0.9
2014-Dec-10 21:26N 33°44' W 118°17'0 0.0
2014-Dec-10 16:13N 33°44' W 118°17'1 0.4
2014-Dec-10 13:25N 33°45' W 118°16'0 0.3
2014-Dec-10 12:33N 33°45' W 118°16'1 1.3
2014-Dec-10 11:30N 33°44' W 118°17'0 0.0
2014-Dec-10 10:33N 33°44' W 118°17'0 0.0
2014-Dec-10 09:24N 33°44' W 118°17'0 0.0
2014-Dec-10 08:30N 33°44' W 118°17'0 0.0
2014-Dec-10 07:32N 33°44' W 118°17'0 0.0
2014-Dec-10 06:33N 33°44' W 118°17'0 0.0
2014-Dec-10 05:32N 33°44' W 118°17'0 0.0
2014-Dec-10 04:33N 33°44' W 118°17'0 0.0
2014-Dec-10 03:34N 33°44' W 118°17'0 0.0
2014-Dec-10 02:33N 33°44' W 118°17'0 0.0
2014-Dec-10 01:33N 33°44' W 118°17'0 0.0
2014-Dec-10 00:33N 33°44' W 118°17'0 0.0
2014-Dec-09 23:33N 33°44' W 118°17'0 0.0
2014-Dec-09 22:34N 33°44' W 118°17'0 0.0
2014-Dec-09 21:33N 33°44' W 118°17'0 0.0
2014-Dec-09 20:33N 33°44' W 118°17'0 0.0
2014-Dec-09 17:33N 33°44' W 118°17'0 0.0
2014-Dec-09 16:34N 33°44' W 118°17'0 0.0
2014-Dec-09 15:31N 33°44' W 118°17'0 0.0
2014-Dec-09 11:33N 33°44' W 118°17'0 0.0
2014-Dec-09 10:33N 33°44' W 118°17'0 0.0
2014-Dec-09 09:33N 33°44' W 118°17'0 0.0
2014-Dec-09 08:34N 33°44' W 118°17'0 0.0
2014-Dec-09 07:33N 33°44' W 118°17'0 0.0
2014-Dec-09 06:33N 33°44' W 118°17'0 0.0
2014-Dec-09 05:31N 33°44' W 118°17'0 0.0
2014-Dec-09 04:33N 33°44' W 118°17'0 0.0
2014-Dec-09 03:27N 33°44' W 118°17'0 0.0
2014-Dec-09 02:33N 33°44' W 118°17'0 0.0
2014-Dec-09 01:33N 33°44' W 118°17'3 3.4
2014-Dec-09 00:33N 33°46' W 118°13'0 0.5
2014-Dec-08 23:33N 33°46' W 118°13'1 1.5
2014-Dec-08 22:33N 33°45' W 118°13'2 2.4
2014-Dec-08 21:34N 33°44' W 118°11'5 0.8
2014-Dec-08 15:10N 33°44' W 118°17'3 4.9
2014-Dec-08 14:32N 33°45' W 118°13'1 0.8
2014-Dec-08 13:33N 33°46' W 118°13'2 2.2
2014-Dec-08 12:28N 33°43' W 118°14'2 2.6
2014-Dec-08 11:34N 33°44' W 118°17'0 0.0
2014-Dec-08 10:33N 33°44' W 118°17'0 0.0
2014-Dec-08 09:34N 33°44' W 118°17'0 0.0
2014-Dec-08 08:33N 33°44' W 118°17'0 0.0
2014-Dec-08 07:33N 33°44' W 118°17'0 0.0
2014-Dec-08 06:33N 33°44' W 118°17'0 0.0
2014-Dec-08 05:34N 33°44' W 118°17'0 0.0
2014-Dec-08 04:32N 33°44' W 118°17'  
Track history (hours):
 
Tides and Currents Weather Stations Pressure Air Temp Water Temp Dewpoint Dewpoint Depression Visibility Wind Speed Wind Dir Waves Ship Positions

Independence

Owner: Sortwell, Inc. DBA AmNav Maritime Services, Oakland, CA. More information available from US FCC via Universal Licensing System and Coast Guard Vessel Documentation Center.

Last reported at 2014-Dec-17 23:33 UTC. Time now 2014-Dec-18 16:25 UTC.
Position N 33°45' W 118°17'.

Length 24 m; draft 4.9 m.

Type: Tug. MMSI: 367175860.

Date/timePositionNaut miles runAvg speedWind from/ knotsBaromVisibWave heightAir tempDewpointWater temp
2014-Dec-17 23:33N 33°45' W 118°17'1 0.1
2014-Dec-17 15:06N 33°45' W 118°16'2 3.1
2014-Dec-17 14:33N 33°46' W 118°14'1 1.0
2014-Dec-17 13:33N 33°46' W 118°13'2 1.9
2014-Dec-17 12:26N 33°44' W 118°13'2 0.1
2014-Dec-16 14:08N 33°44' W 118°15'2 1.5
2014-Dec-16 12:33N 33°46' W 118°13'0 0.4
2014-Dec-16 11:33N 33°46' W 118°14'2 0.1
2014-Dec-15 13:07N 33°45' W 118°13'1 1.1
2014-Dec-15 12:33N 33°45' W 118°13'2 0.6
2014-Dec-15 09:26N 33°44' W 118°13'1 0.0
2014-Dec-13 12:09N 33°45' W 118°13'1 1.1
2014-Dec-13 11:33N 33°45' W 118°13'0 0.0
2014-Dec-13 10:33N 33°45' W 118°13'0 0.1
2014-Dec-13 09:33N 33°45' W 118°13'2 0.8
2014-Dec-13 07:17N 33°44' W 118°12'1 0.1
2014-Dec-12 21:33N 33°45' W 118°13'1 0.7
2014-Dec-12 20:32N 33°44' W 118°12'0 0.1
2014-Dec-12 16:10N 33°44' W 118°12'0 0.5
2014-Dec-12 15:32N 33°45' W 118°12'2 0.8
2014-Dec-12 13:24N 33°44' W 118°11'5 1.0
2014-Dec-12 08:33N 33°44' W 118°17'3 2.6
2014-Dec-12 07:33N 33°46' W 118°14'2 0.3
2014-Dec-12 00:23N 33°44' W 118°12'1 0.6
2014-Dec-11 23:33N 33°45' W 118°12'0 0.3
2014-Dec-11 22:33N 33°45' W 118°13'1 0.1
2014-Dec-11 14:33N 33°46' W 118°13'0 0.4
2014-Dec-11 13:33N 33°46' W 118°14'4 2.4
2014-Dec-11 12:04N 33°44' W 118°11'1 1.9
2014-Dec-11 11:24N 33°44' W 118°12'3 0.5
2014-Dec-11 04:16N 33°44' W 118°17'1 0.9
2014-Dec-11 03:32N 33°44' W 118°16'1 0.5
2014-Dec-11 02:23N 33°44' W 118°15'1 1.5
2014-Dec-11 01:33N 33°44' W 118°17'0 0.0
2014-Dec-11 00:34N 33°44' W 118°17'2 1.9
2014-Dec-10 23:33N 33°46' W 118°16'3 2.8
2014-Dec-10 22:33N 33°43' W 118°16'1 0.9
2014-Dec-10 21:26N 33°44' W 118°17'0 0.0
2014-Dec-10 16:13N 33°44' W 118°17'1 0.4
2014-Dec-10 13:25N 33°45' W 118°16'0 0.3
2014-Dec-10 12:33N 33°45' W 118°16'1 1.3
2014-Dec-10 11:30N 33°44' W 118°17'0 0.0
2014-Dec-10 10:33N 33°44' W 118°17'0 0.0
2014-Dec-10 09:24N 33°44' W 118°17'0 0.0
2014-Dec-10 08:30N 33°44' W 118°17'0 0.0
2014-Dec-10 07:32N 33°44' W 118°17'0 0.0
2014-Dec-10 06:33N 33°44' W 118°17'0 0.0
2014-Dec-10 05:32N 33°44' W 118°17'0 0.0
2014-Dec-10 04:33N 33°44' W 118°17'0 0.0
2014-Dec-10 03:34N 33°44' W 118°17'0 0.0
2014-Dec-10 02:33N 33°44' W 118°17'0 0.0
2014-Dec-10 01:33N 33°44' W 118°17'0 0.0
2014-Dec-10 00:33N 33°44' W 118°17'0 0.0
2014-Dec-09 23:33N 33°44' W 118°17'0 0.0
2014-Dec-09 22:34N 33°44' W 118°17'0 0.0
2014-Dec-09 21:33N 33°44' W 118°17'0 0.0
2014-Dec-09 20:33N 33°44' W 118°17'0 0.0
2014-Dec-09 17:33N 33°44' W 118°17'0 0.0
2014-Dec-09 16:34N 33°44' W 118°17'0 0.0
2014-Dec-09 15:31N 33°44' W 118°17'0 0.0
2014-Dec-09 11:33N 33°44' W 118°17'0 0.0
2014-Dec-09 10:33N 33°44' W 118°17'0 0.0
2014-Dec-09 09:33N 33°44' W 118°17'0 0.0
2014-Dec-09 08:34N 33°44' W 118°17'0 0.0
2014-Dec-09 07:33N 33°44' W 118°17'0 0.0
2014-Dec-09 06:33N 33°44' W 118°17'0 0.0
2014-Dec-09 05:31N 33°44' W 118°17'0 0.0
2014-Dec-09 04:33N 33°44' W 118°17'0 0.0
2014-Dec-09 03:27N 33°44' W 118°17'0 0.0
2014-Dec-09 02:33N 33°44' W 118°17'0 0.0
2014-Dec-09 01:33N 33°44' W 118°17'3 3.4
2014-Dec-09 00:33N 33°46' W 118°13'0 0.5
2014-Dec-08 23:33N 33°46' W 118°13'1 1.5
2014-Dec-08 22:33N 33°45' W 118°13'2 2.4
2014-Dec-08 21:34N 33°44' W 118°11'5 0.8
2014-Dec-08 15:10N 33°44' W 118°17'3 4.9
2014-Dec-08 14:32N 33°45' W 118°13'1 0.8
2014-Dec-08 13:33N 33°46' W 118°13'2 2.2
2014-Dec-08 12:28N 33°43' W 118°14'2 2.6
2014-Dec-08 11:34N 33°44' W 118°17'0 0.0
2014-Dec-08 10:33N 33°44' W 118°17'0 0.0
2014-Dec-08 09:34N 33°44' W 118°17'0 0.0
2014-Dec-08 08:33N 33°44' W 118°17'0 0.0
2014-Dec-08 07:33N 33°44' W 118°17'0 0.0
2014-Dec-08 06:33N 33°44' W 118°17'0 0.0
2014-Dec-08 05:34N 33°44' W 118°17'0 0.0
2014-Dec-08 04:32N 33°44' W 118°17'  

Dump ship's entire track history